Time;durP1;ratioP1;P1;durP2;ratioP2;P2;SDS_P1;SDS_P2;PMS_P1;PMS_P2;Temp;Humidity;BMP_temperature;BMP_pressure;BME280_temperature;BME280_humidity;BME280_pressure;Samples;Min_cycle;Max_cycle;Signal;HPM_P1;HPM_P2
2021/09/08 00:00:05;;;;;;;5.45;2.63;;;;;;;;;;6064382;23;20617;-83
2021/09/08 00:02:31;;;;;;;4.68;2.97;;;;;;;;;;6064989;23;20418;-84
2021/09/08 00:04:57;;;;;;;4.05;2.40;;;;;;;;;;6065977;23;20038;-84
2021/09/08 00:07:23;;;;;;;4.47;3.15;;;;;;;;;;6065013;23;20029;-84
2021/09/08 00:09:49;;;;;;;5.43;2.50;;;;;;;;;;6065207;23;20011;-83
2021/09/08 00:12:15;;;;;;;8.02;2.22;;;;;;;;;;6070630;23;20038;-85
2021/09/08 00:14:41;;;;;;;3.10;2.00;;;;;;;;;;6068417;23;20014;-84
2021/09/08 00:17:07;;;;;;;5.25;2.80;;;;;;;;;;6092762;23;20028;-86
2021/09/08 00:19:33;;;;;;;2.75;2.08;;;;;;;;;;6094038;23;20006;-85
2021/09/08 00:21:59;;;;;;;6.75;2.25;;;;;;;;;;6093538;23;20025;-86
2021/09/08 00:24:25;;;;;;;4.45;2.85;;;;;;;;;;6068262;23;20015;-84
2021/09/08 00:26:51;;;;;;;4.60;2.63;;;;;;;;;;6068531;23;20012;-84
2021/09/08 00:29:17;;;;;;;5.70;2.60;;;;;;;;;;6067947;23;20014;-84
2021/09/08 00:31:43;;;;;;;4.22;3.00;;;;;;;;;;6093774;23;19998;-85
2021/09/08 00:34:09;;;;;;;4.55;2.53;;;;;;;;;;6067653;23;20032;-85
2021/09/08 00:36:35;;;;;;;5.05;2.67;;;;;;;;;;6092784;23;20338;-85
2021/09/08 00:39:01;;;;;;;4.72;2.88;;;;;;;;;;6068373;23;20010;-85
2021/09/08 00:41:34;;;;;;;8.10;2.67;;;;;;;;;;6093621;23;20006;-84
2021/09/08 00:44:06;;;;;;;4.50;2.65;;;;;;;;;;6093551;23;20014;-85
2021/09/08 00:46:32;;;;;;;4.72;2.67;;;;;;;;;;6068048;23;20016;-84
2021/09/08 00:48:58;;;;;;;3.33;2.10;;;;;;;;;;6067715;23;20026;-84
2021/09/08 00:51:24;;;;;;;8.93;3.65;;;;;;;;;;6067941;23;20446;-84
2021/09/08 00:53:51;;;;;;;3.30;2.85;;;;;;;;;;6067415;23;20030;-84
2021/09/08 00:56:17;;;;;;;4.03;2.90;;;;;;;;;;6093785;23;20017;-85
2021/09/08 00:58:43;;;;;;;12.18;2.38;;;;;;;;;;6093903;23;20077;-84
2021/09/08 01:01:09;;;;;;;4.78;2.63;;;;;;;;;;6067791;23;20436;-85
2021/09/08 01:03:35;;;;;;;7.68;2.20;;;;;;;;;;6093323;23;20025;-85
2021/09/08 01:06:01;;;;;;;6.93;3.15;;;;;;;;;;6068024;23;20630;-84
2021/09/08 01:08:28;;;;;;;3.90;2.42;;;;;;;;;;6068049;23;20097;-84
2021/09/08 01:10:54;;;;;;;6.17;2.33;;;;;;;;;;6093467;23;20074;-86
2021/09/08 01:13:20;;;;;;;2.30;2.10;;;;;;;;;;6066414;23;20109;-85
2021/09/08 01:15:54;;;;;;;4.57;3.33;;;;;;;;;;6093334;23;20044;-85
2021/09/08 01:18:20;;;;;;;6.97;2.55;;;;;;;;;;6092717;23;20147;-84
2021/09/08 01:20:46;;;;;;;4.88;2.13;;;;;;;;;;6093051;23;20039;-84
2021/09/08 01:23:12;;;;;;;3.55;2.25;;;;;;;;;;6093028;23;20024;-84
2021/09/08 01:25:38;;;;;;;6.47;3.10;;;;;;;;;;6093368;23;20569;-84
2021/09/08 01:28:04;;;;;;;6.38;2.97;;;;;;;;;;6093227;23;20013;-84
2021/09/08 01:30:30;;;;;;;4.95;2.85;;;;;;;;;;6092304;23;20037;-84
2021/09/08 01:32:56;;;;;;;4.40;2.72;;;;;;;;;;6092495;23;20013;-85
2021/09/08 01:35:22;;;;;;;4.03;2.42;;;;;;;;;;6067859;23;20010;-84
2021/09/08 01:37:49;;;;;;;3.65;2.45;;;20.50;58.40;;;;;;6093254;23;20014;-84
2021/09/08 01:40:16;;;;;;;6.80;3.13;;;;;;;;;;6066961;23;20475;-84
2021/09/08 01:42:43;;;;;;;4.70;2.60;;;20.40;58.40;;;;;;6067586;23;20014;-85
2021/09/08 01:45:18;;;;;;;7.00;2.30;;;;;;;;;;6093271;23;20012;-85
2021/09/08 01:47:45;;;;;;;4.72;2.63;;;;;;;;;;6092105;23;20003;-85
2021/09/08 01:50:11;;;;;;;4.68;3.05;;;;;;;;;;6093128;23;20347;-84
2021/09/08 01:52:38;;;;;;;4.68;3.42;;;;;;;;;;6067161;23;20038;-84
2021/09/08 01:55:05;;;;;;;3.55;2.30;;;;;;;;;;6093394;23;20390;-84
2021/09/08 01:57:31;;;;;;;5.03;3.05;;;;;;;;;;6093622;23;20345;-85
2021/09/08 01:59:57;;;;;;;4.05;2.10;;;;;;;;;;6093113;23;20010;-85
2021/09/08 02:02:23;;;;;;;3.85;2.33;;;;;;;;;;6092627;23;20026;-84
2021/09/08 02:04:49;;;;;;;4.93;2.10;;;;;;;;;;6093123;23;20442;-84
2021/09/08 02:07:15;;;;;;;4.57;2.20;;;;;;;;;;6092422;23;20007;-85
2021/09/08 02:09:41;;;;;;;2.88;2.35;;;;;;;;;;6092538;23;20072;-84
2021/09/08 02:12:07;;;;;;;5.13;3.35;;;;;;;;;;6066907;23;20472;-84
2021/09/08 02:14:33;;;;;;;3.60;2.35;;;;;;;;;;6092825;23;20097;-83
2021/09/08 02:16:59;;;;;;;3.90;2.47;;;;;;;;;;6093035;23;20139;-84
2021/09/08 02:19:25;;;;;;;5.13;3.00;;;;;;;;;;6093093;23;20010;-85
2021/09/08 02:21:51;;;;;;;3.67;2.67;;;;;;;;;;6093032;23;20057;-84
2021/09/08 02:24:17;;;;;;;6.88;2.53;;;;;;;;;;6067763;23;20014;-84
2021/09/08 02:26:43;;;;;;;5.70;2.30;;;;;;;;;;6092124;23;21027;-85
2021/09/08 02:29:10;;;;;;;6.43;2.30;;;;;;;;;;6093273;23;20074;-84
2021/09/08 02:31:36;;;;;;;5.20;3.03;;;;;;;;;;6066716;23;20058;-85
2021/09/08 02:34:02;;;;;;;4.43;2.28;;;;;;;;;;6092738;23;20002;-84
2021/09/08 02:36:28;;;;;;;4.25;2.83;;;;;;;;;;6067571;23;20038;-85
2021/09/08 02:38:54;;;;;;;7.30;2.75;;;;;;;;;;6067896;23;20010;-83
2021/09/08 02:41:22;;;;;;;18.23;3.25;;;;;;;;;;6093224;23;20017;-84
2021/09/08 02:43:48;;;;;;;;;;;;;;;;;;6092536;23;20018;-85
2021/09/08 02:46:14;;;;;;;7.20;2.75;;;;;;;;;;6091667;23;19901;-85
2021/09/08 02:48:40;;;;;;;5.38;2.83;;;;;;;;;;6092604;23;20007;-85
2021/09/08 02:51:06;;;;;;;9.48;2.90;;;;;;;;;;6067473;23;20061;-84
2021/09/08 02:53:33;;;;;;;3.95;2.72;;;;;;;;;;6068296;23;20093;-85
2021/09/08 02:55:59;;;;;;;4.35;2.92;;;;;;;;;;6069322;23;20018;-84
2021/09/08 02:58:25;;;;;;;4.55;2.63;;;;;;;;;;6095064;23;20012;-84
2021/09/08 03:00:51;;;;;;;6.32;3.15;;;;;;;;;;6094765;23;20081;-84
2021/09/08 03:03:18;;;;;;;21.27;3.53;;;;;;;;;;6093981;23;20438;-84
2021/09/08 03:05:44;;;;;;;5.55;4.28;;;;;;;;;;6094111;23;20070;-85
2021/09/08 03:08:10;;;;;;;6.43;2.67;;;;;;;;;;6094884;23;20495;-84
2021/09/08 03:10:36;;;;;;;5.72;2.40;;;;;;;;;;6094512;23;20015;-84
2021/09/08 03:13:03;;;;;;;4.15;2.90;;;;;;;;;;6068631;23;20022;-85
2021/09/08 03:15:29;;;;;;;5.65;3.47;;;;;;;;;;6094184;23;20002;-85
2021/09/08 03:17:55;;;;;;;4.72;2.55;;;;;;;;;;6094730;23;20068;-86
2021/09/08 03:20:21;;;;;;;4.13;2.33;;;;;;;;;;6094002;23;19998;-84
2021/09/08 03:22:47;;;;;;;5.03;2.45;;;;;;;;;;6093686;23;20019;-85
2021/09/08 03:25:13;;;;;;;3.08;2.15;;;;;;;;;;6094742;23;20054;-84
2021/09/08 03:27:40;;;;;;;7.75;2.08;;;;;;;;;;6068855;23;20006;-83
2021/09/08 03:30:06;;;;;;;14.55;2.83;;;;;;;;;;6094201;23;20003;-84
2021/09/08 03:32:32;;;;;;;4.78;2.70;;;;;;;;;;6094210;23;19998;-84
2021/09/08 03:34:59;;;;;;;10.32;3.60;;;;;;;;;;6095026;23;20007;-84
2021/09/08 03:37:25;;;;;;;4.60;2.95;;;;;;;;;;6068483;23;20442;-83
2021/09/08 03:39:52;;;;;;;4.32;2.78;;;;;;;;;;6093457;23;20034;-84
2021/09/08 03:42:18;;;;;;;7.63;3.80;;;;;;;;;;6094007;23;20007;-87
2021/09/08 03:44:44;;;;;;;8.98;2.97;;;;;;;;;;6093831;23;20018;-85
2021/09/08 03:47:10;;;;;;;5.72;2.83;;;;;;;;;;6069000;23;20006;-84
2021/09/08 03:49:36;;;;;;;7.50;3.10;;;;;;;;;;6094243;23;20033;-84
2021/09/08 03:52:02;;;;;;;2.92;2.55;;;;;;;;;;6093686;23;19999;-84
2021/09/08 03:54:28;;;;;;;6.50;3.70;;;;;;;;;;6068592;23;20077;-86
2021/09/08 03:56:54;;;;;;;3.53;2.60;;;;;;;;;;6094601;23;20002;-84
2021/09/08 03:59:22;;;;;;;6.63;3.53;;;;;;;;;;6092752;23;20349;-84
2021/09/08 04:01:48;;;;;;;5.03;2.67;;;;;;;;;;6068356;23;20003;-84
2021/09/08 04:04:15;;;;;;;6.43;3.08;;;;;;;;;;6094127;23;20021;-85
2021/09/08 04:06:41;;;;;;;8.93;3.53;;;;;;;;;;6094577;23;20088;-84
2021/09/08 04:09:07;;;;;;;6.57;3.38;;;;;;;;;;6094094;23;20010;-84
2021/09/08 04:11:33;;;;;;;4.47;3.30;;;;;;;;;;6093497;23;20053;-85
2021/09/08 04:13:59;;;;;;;5.55;3.55;;;;;;;;;;6093793;23;20366;-85
2021/09/08 04:16:25;;;;;;;4.10;3.35;;;;;;;;;;6068435;23;20014;-85
2021/09/08 04:18:51;;;;;;;8.27;3.35;;;;;;;;;;6067721;23;20007;-85
2021/09/08 04:21:17;;;;;;;8.68;3.03;;;;;;;;;;6094186;23;20086;-84
2021/09/08 04:23:43;;;;;;;7.80;3.38;;;;;;;;;;6094031;23;20025;-85
2021/09/08 04:26:09;;;;;;;5.90;3.05;;;;;;;;;;6094391;23;20008;-86
2021/09/08 04:28:35;;;;;;;6.18;2.90;;;;;;;;;;6093540;23;20354;-83
2021/09/08 04:31:01;;;;;;;5.20;2.85;;;;;;;;;;6094142;23;20010;-84
2021/09/08 04:33:27;;;;;;;3.28;2.67;;;;;;;;;;6093581;23;20006;-84
2021/09/08 04:35:56;;;;;;;6.90;3.47;;;;;;;;;;6068037;23;20002;-85
2021/09/08 04:38:22;;;;;;;7.38;3.05;;;;;;;;;;6093453;23;20033;-84
2021/09/08 04:40:48;;;;;;;3.58;2.55;;;;;;;;;;6067907;23;20030;-84
2021/09/08 04:43:14;;;;;;;3.83;2.45;;;;;;;;;;6067739;23;20445;-83
2021/09/08 04:45:40;;;;;;;6.72;3.40;;;;;;;;;;6093954;23;20021;-85
2021/09/08 04:48:06;;;;;;;8.75;2.70;;;;;;;;;;6094116;23;20006;-85
2021/09/08 04:50:32;;;;;;;7.15;3.67;;;;;;;;;;6068017;23;20033;-84
2021/09/08 04:52:58;;;;;;;6.65;3.47;;;;;;;;;;6093771;23;20005;-85
2021/09/08 04:55:24;;;;;;;7.55;2.80;;;;;;;;;;6066932;23;20011;-84
2021/09/08 04:57:50;;;;;;;8.88;4.03;;;;;;;;;;6093594;23;20006;-86
2021/09/08 05:00:17;;;;;;;8.80;3.38;;;;;;;;;;6093862;23;20010;-85
2021/09/08 05:02:42;;;;;;;4.80;3.33;;;;;;;;;;6093394;23;20476;-84
2021/09/08 05:05:09;;;;;;;5.25;3.03;;;;;;;;;;6094125;23;20007;-84
2021/09/08 05:07:35;;;;;;;6.22;2.63;;;;;;;;;;6068100;23;20488;-86
2021/09/08 05:10:01;;;;;;;4.82;3.10;;;;;;;;;;6067318;23;20011;-85
2021/09/08 05:12:27;;;;;;;7.32;3.88;;;;;;;;;;6092205;23;20016;-84
2021/09/08 05:14:53;;;;;;;6.50;3.70;;;;;;;;;;6067661;23;20021;-84
2021/09/08 05:17:19;;;;;;;5.68;3.63;;;;;;;;;;6093232;23;20085;-85
2021/09/08 05:19:45;;;;;;;7.03;3.30;;;;;;;;;;6068137;23;20002;-85
2021/09/08 05:22:11;;;;;;;6.03;3.00;;;;;;;;;;6093215;23;20002;-85
2021/09/08 05:24:37;;;;;;;5.72;3.20;;;;;;;;;;6093228;23;20055;-85
2021/09/08 05:27:03;;;;;;;4.18;2.53;;;;;;;;;;6063508;23;20134;-84
2021/09/08 05:29:29;;;;;;;7.15;3.95;;;;;;;;;;6092014;23;20126;-87
2021/09/08 05:31:55;;;;;;;3.97;2.70;;;;;;;;;;6092785;23;20006;-86
2021/09/08 05:34:21;;;;;;;5.80;2.88;;;;;;;;;;6066451;23;20101;-86
2021/09/08 05:36:47;;;;;;;5.30;2.55;;;;;;;;;;6066380;23;20342;-86
2021/09/08 05:39:13;;;;;;;10.82;3.30;;;;;;;;;;6066601;23;20480;-86
2021/09/08 05:41:39;;;;;;;5.15;3.30;;;;;;;;;;6064200;23;20006;-83
2021/09/08 05:44:05;;;;;;;4.93;2.90;;;;;;;;;;6091833;23;20018;-85
2021/09/08 05:46:31;;;;;;;3.60;2.45;;;;;;;;;;6092078;23;20029;-85
2021/09/08 05:48:58;;;;;;;5.88;3.35;;;;;;;;;;6067290;23;20017;-86
2021/09/08 05:51:24;;;;;;;8.18;2.58;;;;;;;;;;6092919;23;20002;-87
2021/09/08 05:53:50;;;;;;;5.80;3.20;;;;;;;;;;6067150;23;20009;-85
2021/09/08 05:56:16;;;;;;;5.68;3.28;;;;;;;;;;6093030;23;20010;-84
2021/09/08 05:58:42;;;;;;;8.95;3.85;;;;;;;;;;6066891;23;20010;-86
2021/09/08 06:01:07;;;;;;;7.68;4.43;;;;;;;;;;6092880;23;20018;-87
2021/09/08 06:03:33;;;;;;;6.72;3.13;;;;;;;;;;6066686;23;20014;-87
2021/09/08 06:05:59;;;;;;;4.63;2.95;;;;;;;;;;6067564;23;20014;-86
2021/09/08 06:08:28;;;;;;;5.28;2.42;;;;;;;;;;6092287;23;20058;-85
2021/09/08 06:10:54;;;;;;;7.90;3.42;;;;;;;;;;6091228;23;20003;-86
2021/09/08 06:13:20;;;;;;;5.70;2.75;;;;;;;;;;6092470;23;20026;-86
2021/09/08 06:15:46;;;;;;;4.80;3.55;;;;;;;;;;6092171;23;20085;-85
2021/09/08 06:18:12;;;;;;;5.35;3.05;;;;;;;;;;6092774;23;20010;-86
2021/09/08 06:20:38;;;;;;;5.97;3.25;;;;;;;;;;6092235;23;20007;-85
2021/09/08 06:23:04;;;;;;;5.95;3.25;;;;;;;;;;6066556;23;20534;-86
2021/09/08 06:25:30;;;;;;;5.03;3.25;;;;;;;;;;6066593;23;20236;-85
2021/09/08 06:27:56;;;;;;;7.97;2.88;;;;;;;;;;6068671;23;20006;-86
2021/09/08 06:30:22;;;;;;;4.47;2.78;;;;;;;;;;6094275;23;20002;-86
2021/09/08 06:32:48;;;;;;;5.38;2.63;;;;;;;;;;6094784;23;20006;-86
2021/09/08 06:35:14;;;;;;;5.18;3.40;;;;;;;;;;6069290;23;20007;-86
2021/09/08 06:37:42;;;;;;;6.75;3.03;;;;;;;;;;6094433;23;20009;-86
2021/09/08 06:40:09;;;;;;;5.72;2.60;;;;;;;;;;6094159;23;20085;-88
2021/09/08 06:42:35;;;;;;;6.30;2.50;;;;;;;;;;6094391;23;20466;-87
2021/09/08 06:45:01;;;;;;;11.95;2.85;;;;;;;;;;6068134;23;20013;-85
2021/09/08 06:47:27;;;;;;;6.85;2.60;;;;;;;;;;6092889;23;20007;-85
2021/09/08 06:49:53;;;;;;;5.35;2.75;;;;;;;;;;6095596;23;20695;-87
2021/09/08 06:52:20;;;;;;;5.75;2.17;;;;;;;;;;6067863;23;20030;-86
2021/09/08 06:54:46;;;;;;;4.57;2.67;;;;;;;;;;6098709;23;20014;-86
2021/09/08 06:57:13;;;;;;;4.97;3.17;;;;;;;;;;6095470;23;20010;-85
2021/09/08 06:59:40;;;;;;;;;;;26.80;43.60;;;;;;6094803;23;20003;-86
2021/09/08 07:02:07;;;;;;;5.30;2.47;;;;;;;;;;6068405;23;19905;-89
2021/09/08 07:04:33;;;;;;;4.47;2.33;;;;;;;;;;6094078;23;20642;-85
2021/09/08 07:06:59;;;;;;;4.15;2.13;;;;;;;;;;6093601;23;20026;-86
2021/09/08 07:09:25;;;;;;;5.63;3.25;;;;;;;;;;6093956;23;20442;-87
2021/09/08 07:11:51;;;;;;;7.80;2.30;;;;;;;;;;6093660;23;20011;-86
2021/09/08 07:14:17;;;;;;;5.22;3.05;;;;;;;;;;6093989;23;20015;-88
2021/09/08 07:16:43;;;;;;;8.53;4.07;;;;;;;;;;6070016;23;20043;-86
2021/09/08 07:19:08;;;;;;;5.70;2.75;;;30.60;43.10;;;;;;6069289;23;20006;-87
2021/09/08 07:21:34;;;;;;;6.13;3.17;;;;;;;;;;6097171;23;20002;-86
2021/09/08 07:24:00;;;;;;;3.88;2.72;;;;;;;;;;6072908;23;20018;-87
2021/09/08 07:26:32;;;;;;;7.70;3.13;;;;;;;;;;6098807;23;20006;-85
2021/09/08 07:28:58;;;;;;;4.60;2.63;;;;;;;;;;6073849;23;20011;-86
2021/09/08 07:31:24;;;;;;;4.95;1.95;;;;;;;;;;6072689;23;20010;-86
2021/09/08 07:33:50;;;;;;;5.17;2.57;;;;;;;;;;6099340;23;20013;-86
2021/09/08 07:36:16;;;;;;;7.57;2.30;;;;;;;;;;6073336;23;20398;-87
2021/09/08 07:38:42;;;;;;;6.30;2.80;;;;;;;;;;6098496;23;20002;-86
2021/09/08 07:41:08;;;;;;;6.32;2.53;;;;;;;;;;6071268;23;20013;-86
2021/09/08 07:43:34;;;;;;;11.30;2.47;;;;;;;;;;6073156;23;20018;-86
2021/09/08 07:46:00;;;;;;;7.87;1.50;;;;;;;;;;6096930;23;20222;-88
2021/09/08 07:48:26;;;;;;;10.85;2.65;;;;;;;;;;6071328;23;20238;-87
2021/09/08 07:50:52;;;;;;;2.97;1.45;;;;;;;;;;6071367;23;20453;-86
2021/09/08 07:53:18;;;;;;;3.35;2.25;;;;;;;;;;6071896;23;20018;-85
2021/09/08 07:55:44;;;;;;;6.57;2.78;;;;;;;;;;6096446;23;20006;-86
2021/09/08 07:58:10;;;;;;;4.70;2.00;;;;;;;;;;6096136;23;20018;-86
2021/09/08 08:00:36;;;;;;;3.15;2.40;;;;;;;;;;6096221;23;20087;-86
2021/09/08 08:03:03;;;;;;;2.53;1.70;;;;;;;;;;6095920;23;20030;-87
2021/09/08 08:05:31;;;;;;;6.57;2.83;;;33.90;35.50;;;;;;6094237;23;20438;-85
2021/09/08 08:07:57;;;;;;;4.93;2.28;;;;;;;;;;6096386;23;20086;-86
2021/09/08 08:10:24;;;;;;;4.93;2.17;;;;;;;;;;6096839;23;20045;-87
2021/09/08 08:12:50;;;;;;;5.45;2.17;;;;;;;;;;6097509;23;20378;-86
2021/09/08 08:15:17;;;;;;;2.58;1.52;;;;;;;;;;6097775;23;20014;-86
2021/09/08 08:17:43;;;;;;;3.00;1.83;;;;;;;;;;6097115;23;20002;-85
2021/09/08 08:20:10;;;;;;;3.35;1.63;;;35.20;33.50;;;;;;6097535;23;20097;-86
2021/09/08 08:22:37;;;;;;;4.72;1.98;;;35.20;34.20;;;;;;6096772;23;20378;-86
2021/09/08 08:25:04;;;;;;;6.07;1.60;;;35.30;33.60;;;;;;6094456;23;20670;-86
2021/09/08 08:27:29;;;;;;;;;;;35.20;33.20;;;;;;6069496;23;20101;-85
2021/09/08 08:29:55;;;;;;;4.10;1.23;;;;;;;;;;6096316;23;19972;-85
2021/09/08 08:32:23;;;;;;;1.88;1.08;;;;;;;;;;6094358;23;20002;-84
2021/09/08 08:34:49;;;;;;;4.35;1.45;;;;;;;;;;6093901;23;20049;-85
2021/09/08 08:37:15;;;;;;;10.05;2.08;;;;;;;;;;6094491;23;20018;-86
2021/09/08 08:39:41;;;;;;;2.67;1.15;;;;;;;;;;6093002;23;20011;-85
2021/09/08 08:42:13;;;;;;;5.78;1.45;;;;;;;;;;6093490;23;20013;-85
2021/09/08 08:44:40;;;;;;;4.10;1.17;;;34.70;31.80;;;;;;6094237;23;20018;-86
2021/09/08 08:47:06;;;;;;;2.60;1.05;;;34.50;32.00;;;;;;6067510;23;20013;-84
2021/09/08 08:49:33;;;;;;;3.85;1.05;;;34.40;32.10;;;;;;6093094;23;20089;-85
2021/09/08 08:51:59;;;;;;;19.67;1.40;;;;;;;;;;6066932;23;20013;-86
2021/09/08 08:54:25;;;;;;;5.63;0.52;;;;;;;;;;6069161;23;20081;-85
2021/09/08 08:56:52;;;;;;;2.28;1.08;;;33.90;33.00;;;;;;6070534;23;20026;-85
2021/09/08 08:59:18;;;;;;;1.40;1.13;;;33.90;31.60;;;;;;6070035;23;20085;-84
2021/09/08 09:01:45;;;;;;;1.85;0.73;;;;;;;;;;6066578;23;20030;-87
2021/09/08 09:04:11;;;;;;;;;;;33.50;32.60;;;;;;6067403;23;20105;-86
2021/09/08 09:06:40;;;;;;;1.20;0.52;;;33.40;32.20;;;;;;6092997;23;19964;-86
2021/09/08 09:09:25;;;;;;;2.10;1.13;;;;;;;;;;6092522;23;20013;-85
2021/09/08 09:11:51;;;;;;;1.77;1.10;;;;;;;;;;6092757;23;20003;-85
2021/09/08 09:14:18;;;;;;;1.08;0.63;;;;;;;;;;6066713;23;20018;-85
2021/09/08 09:16:44;;;;;;;7.72;1.33;;;32.90;32.90;;;;;;6092039;23;20373;-85
2021/09/08 09:19:11;;;;;;;1.45;1.00;;;;;;;;;;6066939;23;20349;-85
2021/09/08 09:21:46;;;;;;;2.08;1.67;;;;;;;;;;5059614;27;20472;-86
2021/09/08 09:24:12;;;;;;;4.35;1.80;;;;;;;;;;5043322;28;20079;-84
2021/09/08 09:26:41;;;;;;;2.85;0.88;;;;;;;;;;5044709;28;20789;-86
2021/09/08 09:29:13;;;;;;;3.08;1.10;;;33.30;31.80;;;;;;5039966;28;20034;-86
2021/09/08 09:31:52;;;;;;;3.10;0.85;;;;;;;;;;5044399;28;20037;-86
2021/09/08 09:34:18;;;;;;;5.28;1.40;;;;;;;;;;5043232;28;20034;-86
2021/09/08 09:36:44;;;;;;;2.90;1.00;;;;;;;;;;5041705;28;20032;-85
2021/09/08 09:39:10;;;;;;;4.57;0.77;;;;;;;;;;5042943;28;20033;-86
2021/09/08 09:41:36;;;;;;;3.17;1.52;;;;;;;;;;5041385;28;20514;-86
2021/09/08 09:44:09;;;;;;;4.72;1.08;;;;;;;;;;5040745;28;20032;-83
2021/09/08 09:46:38;;;;;;;6.05;1.38;;;33.80;28.90;;;;;;5039787;28;20040;-83
2021/09/08 09:49:04;;;;;;;3.55;0.82;;;;;;;;;;5044067;28;20033;-86
2021/09/08 09:51:31;;;;;;;6.38;1.20;;;;;;;;;;5058039;28;20024;-86
2021/09/08 09:53:57;;;;;;;1.75;1.08;;;;;;;;;;5044456;28;20120;-85
2021/09/08 09:56:23;;;;;;;3.00;1.17;;;;;;;;;;5043098;28;20018;-87
2021/09/08 09:58:49;;;;;;;1.98;1.05;;;;;;;;;;5046776;28;20033;-84
2021/09/08 10:01:16;;;;;;;12.35;1.60;;;;;;;;;;5053386;28;20124;-85
2021/09/08 10:03:44;;;;;;;1.80;0.80;;;;;;;;;;5058514;28;20401;-85
2021/09/08 10:06:10;;;;;;;2.88;0.98;;;;;;;;;;5045451;28;20022;-84
2021/09/08 10:08:42;;;;;;;6.00;0.95;;;33.10;46.40;;;;;;5042451;28;20029;-86
2021/09/08 10:11:09;;;;;;;3.65;1.25;;;;;;;;;;5028589;28;20061;-85
2021/09/08 10:13:44;;;;;;;3.40;1.83;;;33.10;29.70;;;;;;5039065;28;20033;-83
2021/09/08 10:16:11;;;;;;;4.18;1.85;;;33.60;30.10;;;;;;5043937;28;20037;-83
2021/09/08 10:18:37;;;;;;;2.75;1.08;;;;;;;;;;5042719;28;20071;-82
2021/09/08 10:21:15;;;;;;;2.97;1.40;;;35.00;28.60;;;;;;5042543;28;20052;-83
2021/09/08 10:23:45;;;;;;;2.17;0.90;;;35.80;27.80;;;;;;5041932;28;20064;-84
2021/09/08 10:26:17;;;;;;;4.80;2.30;;;36.60;27.90;;;;;;5044737;28;20800;-83
2021/09/08 10:28:43;;;;;;;2.75;0.70;;;37.20;27.40;;;;;;5040805;28;20032;-83
2021/09/08 10:31:10;;;;;;;3.90;1.25;;;;;;;;;;5038810;28;20029;-82
2021/09/08 10:33:41;;;;;;;3.03;1.15;;;36.40;27.00;;;;;;5027253;28;20041;-82
2021/09/08 10:36:10;;;;;;;4.22;1.23;;;;;;;;;;5025620;28;20048;-83
2021/09/08 10:38:36;;;;;;;2.97;1.40;;;;;;;;;;5040324;28;20124;-83
2021/09/08 10:41:07;;;;;;;1.73;0.88;;;35.10;28.00;;;;;;5028406;28;20139;-82
2021/09/08 10:43:36;;;;;;;3.30;1.00;;;34.60;29.70;;;;;;5024862;28;20773;-83
2021/09/08 10:46:03;;;;;;;4.18;0.95;;;;;;;;;;5023806;28;20544;-84
2021/09/08 10:48:43;;;;;;;1.63;0.85;;;33.90;29.90;;;;;;5025618;28;20056;-82
2021/09/08 10:51:16;;;;;;;2.40;1.30;;;33.50;30.80;;;;;;5025806;28;20030;-84
2021/09/08 10:53:42;;;;;;;1.63;0.90;;;;;;;;;;5040535;28;20509;-84
2021/09/08 10:56:08;;;;;;;4.80;1.90;;;;;;;;;;5028114;28;20017;-84
2021/09/08 10:59:00;;;;;;;1.80;1.15;;;32.90;30.60;;;;;;5026919;28;20291;-83
2021/09/08 11:01:26;;;;;;;6.05;1.20;;;;;;;;;;5025657;28;20045;-83
2021/09/08 11:03:52;;;;;;;2.95;1.20;;;;;;;;;;5025815;28;20401;-84
2021/09/08 11:06:37;;;;;;;6.63;1.27;;;32.30;32.30;;;;;;5024251;28;20048;-85
2021/09/08 11:09:05;;;;;;;3.55;1.77;;;32.10;32.00;;;;;;5022125;28;20065;-83
2021/09/08 11:11:31;;;;;;;1.48;1.10;;;;;;;;;;5027806;28;20034;-83
2021/09/08 11:13:57;;;;;;;4.80;2.03;;;;;;;;;;5027359;28;20086;-84
2021/09/08 11:16:32;;;;;;;4.20;1.38;;;31.90;32.00;;;;;;5028454;28;20029;-83
2021/09/08 11:18:59;;;;;;;3.38;1.50;;;;;;;;;;5029267;28;20025;-83
2021/09/08 11:21:31;;;;;;;2.47;1.10;;;31.70;32.30;;;;;;5042073;28;20522;-84
2021/09/08 11:24:04;;;;;;;2.72;1.20;;;;;;;;;;5010818;28;20029;-84
2021/09/08 11:26:32;;;;;;;2.38;0.85;;;31.80;31.90;;;;;;5025142;28;20071;-84
2021/09/08 11:29:10;;;;;;;4.20;1.35;;;31.80;33.10;;;;;;5027592;28;20025;-83
2021/09/08 11:31:46;;;;;;;3.28;1.38;;;31.50;32.70;;;;;;5026889;28;20041;-83
2021/09/08 11:34:24;;;;;;;3.25;1.20;;;31.20;33.00;;;;;;5028303;28;20033;-84
2021/09/08 11:36:52;;;;;;;2.22;1.50;;;30.90;33.10;;;;;;5028153;28;20143;-84
2021/09/08 11:39:18;;;;;;;2.47;1.80;;;;;;;;;;5027413;28;20112;-83
2021/09/08 11:41:54;;;;;;;3.93;1.47;;;;;;;;;;5027709;28;20037;-86
2021/09/08 11:44:20;;;;;;;2.33;1.25;;;;;;;;;;5009862;28;20029;-86
2021/09/08 11:46:46;;;;;;;1.83;1.13;;;;;;;;;;5025772;28;20041;-88
2021/09/08 11:49:13;;;;;;;4.25;1.27;;;;;;;;;;5027305;28;20028;-85
2021/09/08 11:51:40;;;;;;;;;;;30.90;33.70;;;;;;5028617;28;20564;-86
2021/09/08 11:54:08;;;;;;;2.90;1.23;;;;;;;;;;5027073;28;20385;-84
2021/09/08 11:56:37;;;;;;;6.70;2.08;;;;;;;;;;5032334;28;20170;-84
2021/09/08 11:59:04;;;;;;;2.03;1.15;;;;;;;;;;5026740;28;20037;-84
2021/09/08 12:01:35;;;;;;;4.43;1.50;;;;;;;;;;5032588;28;20029;-83
2021/09/08 12:04:01;;;;;;;2.60;1.73;;;;;;;;;;5025920;28;20029;-84
2021/09/08 12:06:29;;;;;;;20.58;2.65;;;;;;;;;;5026842;28;20037;-84
2021/09/08 12:09:13;;;;;;;5.50;1.17;;;;;;;;;;5026895;28;20048;-84
2021/09/08 12:11:47;;;;;;;8.43;1.50;;;;;;;;;;5025713;28;20469;-84
2021/09/08 12:14:40;;;;;;;3.70;2.30;;;30.40;33.30;;;;;;5039400;28;20026;-84
2021/09/08 12:17:12;;;;;;;2.33;1.45;;;30.40;33.80;;;;;;5028991;28;20534;-83
2021/09/08 12:19:45;;;;;;;2.83;1.13;;;30.30;33.80;;;;;;5028036;28;20037;-83
2021/09/08 12:22:14;;;;;;;3.10;1.02;;;;;;;;;;5027573;28;20037;-83
2021/09/08 12:25:10;;;;;;;2.10;1.40;;;30.20;33.80;;;;;;5025741;28;20578;-83
2021/09/08 12:27:40;;;;;;;5.80;2.10;;;30.40;33.80;;;;;;5009241;28;20053;-83
2021/09/08 12:30:20;;;;;;;3.60;1.80;;;30.00;46.50;;;;;;5025144;28;20123;-84
2021/09/08 12:33:07;;;;;;;7.55;1.98;;;30.00;34.30;;;;;;5026874;28;20117;-83
2021/09/08 12:35:43;;;;;;;1.95;0.98;;;;;;;;;;5025832;28;20044;-84
2021/09/08 12:38:22;;;;;;;2.80;1.20;;;;;;;;;;5028602;28;20017;-83
2021/09/08 12:41:06;;;;;;;6.90;2.80;;;;;;;;;;5027552;28;20041;-84
2021/09/08 12:43:32;;;;;;;3.08;1.58;;;;;;;;;;5025772;28;20037;-82
2021/09/08 12:45:58;;;;;;;3.20;1.80;;;;;;;;;;5026283;28;20643;-83
2021/09/08 12:48:25;;;;;;;5.05;2.00;;;;;;;;;;5023863;28;20401;-84
2021/09/08 12:50:51;;;;;;;4.25;1.83;;;;;;;;;;5027115;28;20060;-82
2021/09/08 12:53:17;;;;;;;2.15;1.17;;;;;;;;;;5027568;28;20116;-83
2021/09/08 12:55:43;;;;;;;2.72;1.20;;;;;;;;;;5024419;28;20033;-84
2021/09/08 12:58:09;;;;;;;3.17;1.17;;;;;;;;;;5025244;28;20021;-82
2021/09/08 13:00:35;;;;;;;3.93;2.13;;;;;;;;;;5025114;28;20308;-83
2021/09/08 13:03:01;;;;;;;9.68;1.27;;;;;;;;;;5025243;28;20030;-84
2021/09/08 13:05:27;;;;;;;3.80;1.50;;;;;;;;;;5026775;28;20607;-83
2021/09/08 13:07:53;;;;;;;3.70;1.50;;;;;;;;;;5026396;28;20026;-83
2021/09/08 13:10:20;;;;;;;3.47;1.25;;;;;;;;;;5022881;28;20062;-83
2021/09/08 13:12:46;;;;;;;3.00;1.30;;;;;;;;;;5024515;28;20040;-84
2021/09/08 13:15:12;;;;;;;5.57;1.92;;;;;;;;;;5026880;28;20029;-83
2021/09/08 13:17:38;;;;;;;3.03;1.60;;;;;;;;;;5027245;28;20033;-83
2021/09/08 13:20:05;;;;;;;2.70;1.30;;;;;;;;;;5026975;28;20049;-84
2021/09/08 13:22:31;;;;;;;3.58;1.95;;;;;;;;;;5024640;28;20116;-84
2021/09/08 13:24:57;;;;;;;3.30;1.23;;;;;;;;;;5024219;28;20121;-84
2021/09/08 13:27:27;;;;;;;2.55;1.17;;;;;;;;;;5025159;28;20029;-84
2021/09/08 13:29:54;;;;;;;5.57;2.35;;;;;;;;;;5026962;28;20146;-84
2021/09/08 13:32:20;;;;;;;4.28;1.33;;;;;;;;;;5030760;28;20029;-83
2021/09/08 13:34:46;;;;;;;3.70;1.57;;;;;;;;;;5027310;28;20487;-83
2021/09/08 13:37:12;;;;;;;3.03;1.83;;;;;;;;;;5022973;28;20801;-83
2021/09/08 13:39:38;;;;;;;7.05;1.67;;;;;;;;;;5026776;28;20751;-83
2021/09/08 13:42:04;;;;;;;3.72;1.90;;;;;;;;;;5024088;28;20088;-83
2021/09/08 13:44:31;;;;;;;9.90;1.48;;;;;;;;;;5026816;28;20407;-84
2021/09/08 13:46:57;;;;;;;1.88;1.15;;;;;;;;;;5026073;28;20486;-84
2021/09/08 13:49:24;;;;;;;6.03;2.28;;;;;;;;;;5027550;28;20052;-82
2021/09/08 13:51:50;;;;;;;3.10;1.65;;;;;;;;;;5026055;28;20021;-83
2021/09/08 13:54:16;;;;;;;2.70;1.65;;;;;;;;;;5024662;28;20511;-84
2021/09/08 13:56:42;;;;;;;6.05;1.60;;;;;;;;;;5026230;28;20029;-84
2021/09/08 13:59:08;;;;;;;8.65;1.67;;;;;;;;;;5026118;28;20026;-83
2021/09/08 14:01:34;;;;;;;4.07;1.95;;;;;;;;;;5025754;28;20041;-84
2021/09/08 14:04:00;;;;;;;4.30;1.85;;;;;;;;;;5022986;28;20022;-84
2021/09/08 14:06:26;;;;;;;5.07;1.95;;;;;;;;;;5024646;28;20509;-85
2021/09/08 14:08:52;;;;;;;3.00;2.22;;;;;;;;;;5029209;28;20033;-84
2021/09/08 14:11:18;;;;;;;7.72;1.98;;;;;;;;;;5030473;28;20060;-85
2021/09/08 14:13:45;;;;;;;2.85;1.67;;;;;;;;;;5031447;28;20025;-86
2021/09/08 14:16:13;;;;;;;2.30;1.40;;;;;;;;;;5029319;28;20025;-84
2021/09/08 14:18:40;;;;;;;3.63;1.27;;;;;;;;;;5028657;28;20393;-83
2021/09/08 14:21:06;;;;;;;5.18;1.92;;;;;;;;;;5029074;28;20048;-84
2021/09/08 14:23:32;;;;;;;2.28;1.27;;;;;;;;;;5029608;28;20037;-86
2021/09/08 14:25:58;;;;;;;7.32;1.88;;;;;;;;;;5031877;28;20040;-83